sensor_id;sensor_type;location;lat;lon;timestamp;temperature;humidity
68450;SHT30;67758;39.572;2.652;2023-07-22T00:01:26;28.15;76.17
68450;SHT30;67758;39.572;2.652;2023-07-22T00:03:52;28.20;75.74
68450;SHT30;67758;39.572;2.652;2023-07-22T00:06:18;28.12;75.88
68450;SHT30;67758;39.572;2.652;2023-07-22T00:08:44;28.25;75.78
68450;SHT30;67758;39.572;2.652;2023-07-22T00:11:09;28.08;76.10
68450;SHT30;67758;39.572;2.652;2023-07-22T00:13:35;27.96;76.38
68450;SHT30;67758;39.572;2.652;2023-07-22T00:16:01;28.10;76.17
68450;SHT30;67758;39.572;2.652;2023-07-22T00:18:30;28.10;76.25
68450;SHT30;67758;39.572;2.652;2023-07-22T00:20:56;28.12;76.10
68450;SHT30;67758;39.572;2.652;2023-07-22T00:23:30;28.09;76.07
68450;SHT30;67758;39.572;2.652;2023-07-22T00:25:59;27.95;76.35
68450;SHT30;67758;39.572;2.652;2023-07-22T00:28:25;27.68;77.54
68450;SHT30;67758;39.572;2.652;2023-07-22T00:30:50;27.82;76.86
68450;SHT30;67758;39.572;2.652;2023-07-22T00:33:19;27.87;76.61
68450;SHT30;67758;39.572;2.652;2023-07-22T00:35:47;28.08;76.23
68450;SHT30;67758;39.572;2.652;2023-07-22T00:38:15;28.04;76.20
68450;SHT30;67758;39.572;2.652;2023-07-22T00:40:41;27.99;76.40
68450;SHT30;67758;39.572;2.652;2023-07-22T00:43:07;28.02;76.24
68450;SHT30;67758;39.572;2.652;2023-07-22T00:45:32;28.02;76.07
68450;SHT30;67758;39.572;2.652;2023-07-22T00:47:59;27.99;76.38
68450;SHT30;67758;39.572;2.652;2023-07-22T00:50:25;28.06;76.28
68450;SHT30;67758;39.572;2.652;2023-07-22T00:52:52;28.02;76.51
68450;SHT30;67758;39.572;2.652;2023-07-22T00:55:18;27.95;76.83
68450;SHT30;67758;39.572;2.652;2023-07-22T00:57:44;27.89;76.99
68450;SHT30;67758;39.572;2.652;2023-07-22T01:00:10;27.82;77.08
68450;SHT30;67758;39.572;2.652;2023-07-22T01:02:41;27.94;76.79
68450;SHT30;67758;39.572;2.652;2023-07-22T01:05:10;27.78;77.53
68450;SHT30;67758;39.572;2.652;2023-07-22T01:07:39;27.81;77.31
68450;SHT30;67758;39.572;2.652;2023-07-22T01:10:08;27.82;77.12
68450;SHT30;67758;39.572;2.652;2023-07-22T01:12:35;27.81;76.99
68450;SHT30;67758;39.572;2.652;2023-07-22T01:15:01;27.84;77.03
68450;SHT30;67758;39.572;2.652;2023-07-22T01:17:29;27.89;76.64
68450;SHT30;67758;39.572;2.652;2023-07-22T01:19:58;27.74;76.79
68450;SHT30;67758;39.572;2.652;2023-07-22T01:22:27;27.44;77.60
68450;SHT30;67758;39.572;2.652;2023-07-22T01:25:09;27.68;77.38
68450;SHT30;67758;39.572;2.652;2023-07-22T01:27:35;27.61;77.29
68450;SHT30;67758;39.572;2.652;2023-07-22T01:30:01;27.67;77.22
68450;SHT30;67758;39.572;2.652;2023-07-22T01:32:28;27.69;77.09
68450;SHT30;67758;39.572;2.652;2023-07-22T01:34:54;27.72;76.82
68450;SHT30;67758;39.572;2.652;2023-07-22T01:37:22;27.40;77.47
68450;SHT30;67758;39.572;2.652;2023-07-22T01:39:48;27.41;77.49
68450;SHT30;67758;39.572;2.652;2023-07-22T01:42:16;27.64;77.15
68450;SHT30;67758;39.572;2.652;2023-07-22T01:44:41;27.77;76.60
68450;SHT30;67758;39.572;2.652;2023-07-22T01:47:10;27.85;76.55
68450;SHT30;67758;39.572;2.652;2023-07-22T01:49:36;27.92;76.05
68450;SHT30;67758;39.572;2.652;2023-07-22T01:52:05;27.81;76.18
68450;SHT30;67758;39.572;2.652;2023-07-22T01:54:34;27.78;76.34
68450;SHT30;67758;39.572;2.652;2023-07-22T01:56:59;27.50;77.44
68450;SHT30;67758;39.572;2.652;2023-07-22T01:59:27;27.64;77.33
68450;SHT30;67758;39.572;2.652;2023-07-22T02:01:53;27.71;77.03
68450;SHT30;67758;39.572;2.652;2023-07-22T02:04:19;27.74;76.74
68450;SHT30;67758;39.572;2.652;2023-07-22T02:06:46;27.75;76.56
68450;SHT30;67758;39.572;2.652;2023-07-22T02:09:12;27.74;76.33
68450;SHT30;67758;39.572;2.652;2023-07-22T02:11:39;27.30;77.59
68450;SHT30;67758;39.572;2.652;2023-07-22T02:14:05;27.14;77.93
68450;SHT30;67758;39.572;2.652;2023-07-22T02:16:38;27.20;78.03
68450;SHT30;67758;39.572;2.652;2023-07-22T02:19:07;27.18;77.87
68450;SHT30;67758;39.572;2.652;2023-07-22T02:21:35;27.22;77.78
68450;SHT30;67758;39.572;2.652;2023-07-22T02:24:00;27.37;77.41
68450;SHT30;67758;39.572;2.652;2023-07-22T02:26:26;27.57;76.98
68450;SHT30;67758;39.572;2.652;2023-07-22T02:28:52;27.55;76.64
68450;SHT30;67758;39.572;2.652;2023-07-22T02:31:18;27.57;76.74
68450;SHT30;67758;39.572;2.652;2023-07-22T02:33:43;27.34;77.10
68450;SHT30;67758;39.572;2.652;2023-07-22T02:36:10;27.43;77.01
68450;SHT30;67758;39.572;2.652;2023-07-22T02:38:36;27.55;76.76
68450;SHT30;67758;39.572;2.652;2023-07-22T02:41:05;27.50;76.51
68450;SHT30;67758;39.572;2.652;2023-07-22T02:43:36;27.54;76.41
68450;SHT30;67758;39.572;2.652;2023-07-22T02:46:04;27.46;76.44
68450;SHT30;67758;39.572;2.652;2023-07-22T02:48:30;27.43;76.53
68450;SHT30;67758;39.572;2.652;2023-07-22T02:51:06;27.43;76.58
68450;SHT30;67758;39.572;2.652;2023-07-22T02:53:33;27.34;76.52
68450;SHT30;67758;39.572;2.652;2023-07-22T02:55:59;27.30;76.67
68450;SHT30;67758;39.572;2.652;2023-07-22T02:58:25;27.51;76.48
68450;SHT30;67758;39.572;2.652;2023-07-22T03:00:51;27.50;76.17
68450;SHT30;67758;39.572;2.652;2023-07-22T03:03:17;27.51;76.20
68450;SHT30;67758;39.572;2.652;2023-07-22T03:05:44;27.37;76.32
68450;SHT30;67758;39.572;2.652;2023-07-22T03:08:10;27.38;76.49
68450;SHT30;67758;39.572;2.652;2023-07-22T03:10:35;27.33;76.77
68450;SHT30;67758;39.572;2.652;2023-07-22T03:13:01;27.43;76.58
68450;SHT30;67758;39.572;2.652;2023-07-22T03:15:29;27.27;76.56
68450;SHT30;67758;39.572;2.652;2023-07-22T03:17:55;27.30;76.82
68450;SHT30;67758;39.572;2.652;2023-07-22T03:20:22;27.24;76.62
68450;SHT30;67758;39.572;2.652;2023-07-22T03:22:48;27.22;76.62
68450;SHT30;67758;39.572;2.652;2023-07-22T03:25:15;27.31;76.41
68450;SHT30;67758;39.572;2.652;2023-07-22T03:27:43;27.22;76.12
68450;SHT30;67758;39.572;2.652;2023-07-22T03:30:12;27.20;76.11
68450;SHT30;67758;39.572;2.652;2023-07-22T03:32:44;27.18;76.44
68450;SHT30;67758;39.572;2.652;2023-07-22T03:35:10;27.18;76.17
68450;SHT30;67758;39.572;2.652;2023-07-22T03:37:38;27.18;76.66
68450;SHT30;67758;39.572;2.652;2023-07-22T03:40:04;27.26;75.93
68450;SHT30;67758;39.572;2.652;2023-07-22T03:42:34;27.16;76.46
68450;SHT30;67758;39.572;2.652;2023-07-22T03:45:00;27.24;76.28
68450;SHT30;67758;39.572;2.652;2023-07-22T03:47:26;27.29;76.32
68450;SHT30;67758;39.572;2.652;2023-07-22T03:49:52;27.30;75.88
68450;SHT30;67758;39.572;2.652;2023-07-22T03:52:18;27.26;76.37
68450;SHT30;67758;39.572;2.652;2023-07-22T03:54:44;27.40;76.12
68450;SHT30;67758;39.572;2.652;2023-07-22T03:57:10;27.34;76.38
68450;SHT30;67758;39.572;2.652;2023-07-22T03:59:36;27.34;76.34
68450;SHT30;67758;39.572;2.652;2023-07-22T04:02:02;27.11;76.71
68450;SHT30;67758;39.572;2.652;2023-07-22T04:04:28;27.04;77.04
68450;SHT30;67758;39.572;2.652;2023-07-22T04:06:54;26.96;77.00
68450;SHT30;67758;39.572;2.652;2023-07-22T04:09:19;27.14;76.69
68450;SHT30;67758;39.572;2.652;2023-07-22T04:11:46;27.06;76.41
68450;SHT30;67758;39.572;2.652;2023-07-22T04:14:12;27.17;76.18
68450;SHT30;67758;39.572;2.652;2023-07-22T04:16:39;26.99;76.39
68450;SHT30;67758;39.572;2.652;2023-07-22T04:19:04;26.97;76.24
68450;SHT30;67758;39.572;2.652;2023-07-22T04:21:30;26.96;76.34
68450;SHT30;67758;39.572;2.652;2023-07-22T04:23:56;27.00;75.81
68450;SHT30;67758;39.572;2.652;2023-07-22T04:26:21;26.95;74.85
68450;SHT30;67758;39.572;2.652;2023-07-22T04:28:48;26.90;74.40
68450;SHT30;67758;39.572;2.652;2023-07-22T04:31:14;26.83;74.24
68450;SHT30;67758;39.572;2.652;2023-07-22T04:33:40;26.83;74.59
68450;SHT30;67758;39.572;2.652;2023-07-22T04:36:07;26.76;74.96
68450;SHT30;67758;39.572;2.652;2023-07-22T04:38:32;26.89;74.35
68450;SHT30;67758;39.572;2.652;2023-07-22T04:40:58;26.87;73.61
68450;SHT30;67758;39.572;2.652;2023-07-22T04:43:26;26.93;73.93
68450;SHT30;67758;39.572;2.652;2023-07-22T04:45:52;26.90;73.16
68450;SHT30;67758;39.572;2.652;2023-07-22T04:48:20;26.97;72.96
68450;SHT30;67758;39.572;2.652;2023-07-22T04:50:46;27.07;73.24
68450;SHT30;67758;39.572;2.652;2023-07-22T04:53:16;26.93;72.99
68450;SHT30;67758;39.572;2.652;2023-07-22T04:55:42;27.00;72.68
68450;SHT30;67758;39.572;2.652;2023-07-22T04:58:08;27.08;72.39
68450;SHT30;67758;39.572;2.652;2023-07-22T05:00:35;26.95;72.23
68450;SHT30;67758;39.572;2.652;2023-07-22T05:03:03;27.07;72.71
68450;SHT30;67758;39.572;2.652;2023-07-22T05:05:28;27.02;72.39
68450;SHT30;67758;39.572;2.652;2023-07-22T05:07:54;26.79;72.29
68450;SHT30;67758;39.572;2.652;2023-07-22T05:10:20;26.99;72.61
68450;SHT30;67758;39.572;2.652;2023-07-22T05:12:45;26.99;72.27
68450;SHT30;67758;39.572;2.652;2023-07-22T05:15:12;27.03;72.36
68450;SHT30;67758;39.572;2.652;2023-07-22T05:17:38;26.86;72.11
68450;SHT30;67758;39.572;2.652;2023-07-22T05:20:05;26.87;72.43
68450;SHT30;67758;39.572;2.652;2023-07-22T05:22:38;27.04;72.23
68450;SHT30;67758;39.572;2.652;2023-07-22T05:25:06;26.97;72.47
68450;SHT30;67758;39.572;2.652;2023-07-22T05:27:32;26.96;72.75
68450;SHT30;67758;39.572;2.652;2023-07-22T05:29:58;26.99;72.71
68450;SHT30;67758;39.572;2.652;2023-07-22T05:32:25;26.75;73.28
68450;SHT30;67758;39.572;2.652;2023-07-22T05:34:51;26.66;73.81
68450;SHT30;67758;39.572;2.652;2023-07-22T05:37:20;27.04;73.18
68450;SHT30;67758;39.572;2.652;2023-07-22T05:39:46;27.24;72.76
68450;SHT30;67758;39.572;2.652;2023-07-22T05:42:12;27.29;72.60
68450;SHT30;67758;39.572;2.652;2023-07-22T05:44:37;27.04;72.88
68450;SHT30;67758;39.572;2.652;2023-07-22T05:47:04;27.08;73.36
68450;SHT30;67758;39.572;2.652;2023-07-22T05:49:30;27.10;72.84
68450;SHT30;67758;39.572;2.652;2023-07-22T05:51:57;27.44;72.63
68450;SHT30;67758;39.572;2.652;2023-07-22T05:54:26;27.50;72.08
68450;SHT30;67758;39.572;2.652;2023-07-22T05:56:51;27.67;72.05
68450;SHT30;67758;39.572;2.652;2023-07-22T05:59:18;27.57;71.72
68450;SHT30;67758;39.572;2.652;2023-07-22T06:01:44;27.72;71.60
68450;SHT30;67758;39.572;2.652;2023-07-22T06:04:13;27.58;71.90
68450;SHT30;67758;39.572;2.652;2023-07-22T06:06:38;27.85;71.64
68450;SHT30;67758;39.572;2.652;2023-07-22T06:09:06;27.91;71.44
68450;SHT30;67758;39.572;2.652;2023-07-22T06:11:32;27.82;71.71
68450;SHT30;67758;39.572;2.652;2023-07-22T06:13:58;27.82;71.55
68450;SHT30;67758;39.572;2.652;2023-07-22T06:16:25;27.95;70.93
68450;SHT30;67758;39.572;2.652;2023-07-22T06:18:50;27.78;71.71
68450;SHT30;67758;39.572;2.652;2023-07-22T06:21:16;27.98;71.41
68450;SHT30;67758;39.572;2.652;2023-07-22T06:23:42;28.13;71.00
68450;SHT30;67758;39.572;2.652;2023-07-22T06:26:09;27.98;70.77
68450;SHT30;67758;39.572;2.652;2023-07-22T06:28:34;28.10;71.06
68450;SHT30;67758;39.572;2.652;2023-07-22T06:31:00;28.01;70.83
68450;SHT30;67758;39.572;2.652;2023-07-22T06:33:26;28.18;70.73
68450;SHT30;67758;39.572;2.652;2023-07-22T06:35:52;28.36;70.20
68450;SHT30;67758;39.572;2.652;2023-07-22T06:38:17;28.39;69.89
68450;SHT30;67758;39.572;2.652;2023-07-22T06:40:44;28.55;69.32
68450;SHT30;67758;39.572;2.652;2023-07-22T06:43:10;28.56;69.07
68450;SHT30;67758;39.572;2.652;2023-07-22T06:45:36;28.53;69.38
68450;SHT30;67758;39.572;2.652;2023-07-22T06:48:02;28.36;69.05
68450;SHT30;67758;39.572;2.652;2023-07-22T06:50:28;28.50;69.10
68450;SHT30;67758;39.572;2.652;2023-07-22T06:52:54;28.66;68.97
68450;SHT30;67758;39.572;2.652;2023-07-22T06:55:19;28.57;68.78
68450;SHT30;67758;39.572;2.652;2023-07-22T06:57:47;28.81;68.15
68450;SHT30;67758;39.572;2.652;2023-07-22T07:00:13;28.80;68.31
68450;SHT30;67758;39.572;2.652;2023-07-22T07:02:39;28.79;67.90
68450;SHT30;67758;39.572;2.652;2023-07-22T07:05:05;28.80;68.01
68450;SHT30;67758;39.572;2.652;2023-07-22T07:07:30;28.79;67.72
68450;SHT30;67758;39.572;2.652;2023-07-22T07:09:58;28.81;67.57
68450;SHT30;67758;39.572;2.652;2023-07-22T07:12:23;28.74;67.76
68450;SHT30;67758;39.572;2.652;2023-07-22T07:14:53;28.70;67.37
68450;SHT30;67758;39.572;2.652;2023-07-22T07:17:19;28.71;67.21
68450;SHT30;67758;39.572;2.652;2023-07-22T07:19:44;28.84;67.25
68450;SHT30;67758;39.572;2.652;2023-07-22T07:22:10;28.67;66.74
68450;SHT30;67758;39.572;2.652;2023-07-22T07:24:36;28.60;68.17
68450;SHT30;67758;39.572;2.652;2023-07-22T07:27:02;28.66;67.86
68450;SHT30;67758;39.572;2.652;2023-07-22T07:29:27;28.77;67.54
68450;SHT30;67758;39.572;2.652;2023-07-22T07:31:53;28.98;66.81
68450;SHT30;67758;39.572;2.652;2023-07-22T07:34:21;29.20;66.52
68450;SHT30;67758;39.572;2.652;2023-07-22T07:36:47;28.86;66.19
68450;SHT30;67758;39.572;2.652;2023-07-22T07:39:14;29.24;65.73
68450;SHT30;67758;39.572;2.652;2023-07-22T07:41:40;28.98;64.76
68450;SHT30;67758;39.572;2.652;2023-07-22T07:44:05;29.25;65.33
68450;SHT30;67758;39.572;2.652;2023-07-22T07:46:31;29.55;64.73
68450;SHT30;67758;39.572;2.652;2023-07-22T07:49:01;29.61;64.20
68450;SHT30;67758;39.572;2.652;2023-07-22T07:51:28;29.71;64.43
68450;SHT30;67758;39.572;2.652;2023-07-22T07:53:55;29.66;63.38
68450;SHT30;67758;39.572;2.652;2023-07-22T07:56:21;29.81;62.40
68450;SHT30;67758;39.572;2.652;2023-07-22T07:58:49;30.00;62.87
68450;SHT30;67758;39.572;2.652;2023-07-22T08:01:15;29.79;62.44
68450;SHT30;67758;39.572;2.652;2023-07-22T08:03:41;29.79;62.70
68450;SHT30;67758;39.572;2.652;2023-07-22T08:06:08;29.78;62.71
68450;SHT30;67758;39.572;2.652;2023-07-22T08:08:34;29.69;63.00
68450;SHT30;67758;39.572;2.652;2023-07-22T08:11:01;29.92;62.97
68450;SHT30;67758;39.572;2.652;2023-07-22T08:13:27;29.96;63.02
68450;SHT30;67758;39.572;2.652;2023-07-22T08:15:55;29.68;62.97
68450;SHT30;67758;39.572;2.652;2023-07-22T08:18:21;29.73;63.76
68450;SHT30;67758;39.572;2.652;2023-07-22T08:20:46;29.65;63.37
68450;SHT30;67758;39.572;2.652;2023-07-22T08:23:13;29.71;63.38
68450;SHT30;67758;39.572;2.652;2023-07-22T08:25:39;29.48;62.92
68450;SHT30;67758;39.572;2.652;2023-07-22T08:28:04;29.51;63.97
68450;SHT30;67758;39.572;2.652;2023-07-22T08:30:30;29.45;63.39
68450;SHT30;67758;39.572;2.652;2023-07-22T08:32:56;29.31;63.75
68450;SHT30;67758;39.572;2.652;2023-07-22T08:35:22;29.42;63.84
68450;SHT30;67758;39.572;2.652;2023-07-22T08:37:48;29.34;63.54
68450;SHT30;67758;39.572;2.652;2023-07-22T08:40:13;29.49;63.38
68450;SHT30;67758;39.572;2.652;2023-07-22T08:42:40;29.51;63.10
68450;SHT30;67758;39.572;2.652;2023-07-22T08:45:10;29.61;63.19
68450;SHT30;67758;39.572;2.652;2023-07-22T08:47:41;29.72;63.08
68450;SHT30;67758;39.572;2.652;2023-07-22T08:50:09;29.48;63.54
68450;SHT30;67758;39.572;2.652;2023-07-22T08:52:37;29.44;63.07
68450;SHT30;67758;39.572;2.652;2023-07-22T08:55:11;29.55;63.42
68450;SHT30;67758;39.572;2.652;2023-07-22T08:57:38;29.75;63.14
68450;SHT30;67758;39.572;2.652;2023-07-22T09:00:05;29.78;63.27
68450;SHT30;67758;39.572;2.652;2023-07-22T09:02:35;29.72;63.07
68450;SHT30;67758;39.572;2.652;2023-07-22T09:05:01;29.54;62.45
68450;SHT30;67758;39.572;2.652;2023-07-22T09:07:28;29.96;62.14
68450;SHT30;67758;39.572;2.652;2023-07-22T09:09:54;30.19;61.76
68450;SHT30;67758;39.572;2.652;2023-07-22T09:12:21;30.06;61.40
68450;SHT30;67758;39.572;2.652;2023-07-22T09:14:48;30.17;61.29
68450;SHT30;67758;39.572;2.652;2023-07-22T09:17:15;30.27;61.22
68450;SHT30;67758;39.572;2.652;2023-07-22T09:19:40;30.26;60.61
68450;SHT30;67758;39.572;2.652;2023-07-22T09:22:07;30.29;60.86
68450;SHT30;67758;39.572;2.652;2023-07-22T09:24:33;30.20;60.70
68450;SHT30;67758;39.572;2.652;2023-07-22T09:26:59;30.40;60.56
68450;SHT30;67758;39.572;2.652;2023-07-22T09:29:38;30.53;59.58
68450;SHT30;67758;39.572;2.652;2023-07-22T09:32:07;30.67;58.91
68450;SHT30;67758;39.572;2.652;2023-07-22T09:34:33;30.87;59.34
68450;SHT30;67758;39.572;2.652;2023-07-22T09:36:59;30.91;58.74
68450;SHT30;67758;39.572;2.652;2023-07-22T09:39:30;31.18;58.01
68450;SHT30;67758;39.572;2.652;2023-07-22T09:42:01;31.47;57.59
68450;SHT30;67758;39.572;2.652;2023-07-22T09:44:32;31.92;56.71
68450;SHT30;67758;39.572;2.652;2023-07-22T09:47:06;31.80;56.25
68450;SHT30;67758;39.572;2.652;2023-07-22T09:49:33;31.80;56.95
68450;SHT30;67758;39.572;2.652;2023-07-22T09:51:59;31.70;56.77
68450;SHT30;67758;39.572;2.652;2023-07-22T09:54:26;31.63;56.31
68450;SHT30;67758;39.572;2.652;2023-07-22T09:56:54;31.47;56.98
68450;SHT30;67758;39.572;2.652;2023-07-22T09:59:21;31.46;56.84
68450;SHT30;67758;39.572;2.652;2023-07-22T10:01:48;31.45;57.17
68450;SHT30;67758;39.572;2.652;2023-07-22T10:04:16;31.50;56.78
68450;SHT30;67758;39.572;2.652;2023-07-22T10:06:42;31.59;56.34
68450;SHT30;67758;39.572;2.652;2023-07-22T10:09:10;31.65;56.22
68450;SHT30;67758;39.572;2.652;2023-07-22T10:11:37;31.85;55.77
68450;SHT30;67758;39.572;2.652;2023-07-22T10:14:05;32.13;54.94
68450;SHT30;67758;39.572;2.652;2023-07-22T10:16:31;32.24;54.76
68450;SHT30;67758;39.572;2.652;2023-07-22T10:18:59;32.27;54.64
68450;SHT30;67758;39.572;2.652;2023-07-22T10:21:25;32.09;55.23
68450;SHT30;67758;39.572;2.652;2023-07-22T10:23:51;31.72;55.93
68450;SHT30;67758;39.572;2.652;2023-07-22T10:26:18;31.76;55.82
68450;SHT30;67758;39.572;2.652;2023-07-22T10:28:45;32.41;54.34
68450;SHT30;67758;39.572;2.652;2023-07-22T10:31:12;32.45;54.25
68450;SHT30;67758;39.572;2.652;2023-07-22T10:33:38;32.89;53.10
68450;SHT30;67758;39.572;2.652;2023-07-22T10:38:31;32.19;53.95
68450;SHT30;67758;39.572;2.652;2023-07-22T10:40:58;31.82;54.98
68450;SHT30;67758;39.572;2.652;2023-07-22T10:43:30;32.20;54.15
68450;SHT30;67758;39.572;2.652;2023-07-22T10:45:58;32.26;54.56
68450;SHT30;67758;39.572;2.652;2023-07-22T10:48:28;32.71;52.92
68450;SHT30;67758;39.572;2.652;2023-07-22T10:51:12;32.67;53.27
68450;SHT30;67758;39.572;2.652;2023-07-22T10:53:46;32.44;54.01
68450;SHT30;67758;39.572;2.652;2023-07-22T10:56:13;34.13;50.73
68450;SHT30;67758;39.572;2.652;2023-07-22T11:01:24;35.70;47.70
68450;SHT30;67758;39.572;2.652;2023-07-22T11:04:25;36.27;46.54
68450;SHT30;67758;39.572;2.652;2023-07-22T11:07:04;35.74;46.95
68450;SHT30;67758;39.572;2.652;2023-07-22T11:12:22;34.33;49.35
68450;SHT30;67758;39.572;2.652;2023-07-22T11:15:02;35.23;47.64
68450;SHT30;67758;39.572;2.652;2023-07-22T11:17:30;36.23;46.06
68450;SHT30;67758;39.572;2.652;2023-07-22T11:19:57;36.19;45.93
68450;SHT30;67758;39.572;2.652;2023-07-22T11:22:23;36.61;45.02
68450;SHT30;67758;39.572;2.652;2023-07-22T11:24:48;35.77;46.43
68450;SHT30;67758;39.572;2.652;2023-07-22T11:27:14;35.35;47.01
68450;SHT30;67758;39.572;2.652;2023-07-22T11:29:40;35.38;46.95
68450;SHT30;67758;39.572;2.652;2023-07-22T11:32:06;36.14;45.74
68450;SHT30;67758;39.572;2.652;2023-07-22T11:34:33;36.60;44.63
68450;SHT30;67758;39.572;2.652;2023-07-22T11:36:58;36.91;44.25
68450;SHT30;67758;39.572;2.652;2023-07-22T11:39:26;37.29;43.24
68450;SHT30;67758;39.572;2.652;2023-07-22T11:41:52;37.26;43.52
68450;SHT30;67758;39.572;2.652;2023-07-22T11:44:20;37.34;43.40
68450;SHT30;67758;39.572;2.652;2023-07-22T11:47:00;38.15;41.29
68450;SHT30;67758;39.572;2.652;2023-07-22T11:49:34;37.53;42.62
68450;SHT30;67758;39.572;2.652;2023-07-22T11:52:18;36.89;43.63
68450;SHT30;67758;39.572;2.652;2023-07-22T11:54:48;37.16;43.16
68450;SHT30;67758;39.572;2.652;2023-07-22T11:57:19;37.19;42.95
68450;SHT30;67758;39.572;2.652;2023-07-22T11:59:51;37.63;42.39
68450;SHT30;67758;39.572;2.652;2023-07-22T12:02:27;38.42;40.99
68450;SHT30;67758;39.572;2.652;2023-07-22T12:05:20;37.84;41.82
68450;SHT30;67758;39.572;2.652;2023-07-22T12:08:03;37.32;42.85
68450;SHT30;67758;39.572;2.652;2023-07-22T12:13:41;35.66;46.28
68450;SHT30;67758;39.572;2.652;2023-07-22T12:16:10;35.10;47.45
68450;SHT30;67758;39.572;2.652;2023-07-22T12:18:46;35.26;47.77
68450;SHT30;67758;39.572;2.652;2023-07-22T12:21:12;35.63;47.37
68450;SHT30;67758;39.572;2.652;2023-07-22T12:23:39;36.05;46.81
68450;SHT30;67758;39.572;2.652;2023-07-22T12:26:05;35.76;47.54
68450;SHT30;67758;39.572;2.652;2023-07-22T12:28:31;36.16;46.29
68450;SHT30;67758;39.572;2.652;2023-07-22T12:31:07;36.02;46.35
68450;SHT30;67758;39.572;2.652;2023-07-22T12:33:35;36.02;46.39
68450;SHT30;67758;39.572;2.652;2023-07-22T12:36:03;36.10;46.15
68450;SHT30;67758;39.572;2.652;2023-07-22T12:38:30;36.35;45.71
68450;SHT30;67758;39.572;2.652;2023-07-22T12:40:56;35.77;46.81
68450;SHT30;67758;39.572;2.652;2023-07-22T12:43:22;34.59;48.44
68450;SHT30;67758;39.572;2.652;2023-07-22T12:45:47;34.20;49.83
68450;SHT30;67758;39.572;2.652;2023-07-22T12:48:13;33.59;51.41
68450;SHT30;67758;39.572;2.652;2023-07-22T12:50:39;33.36;52.10
68450;SHT30;67758;39.572;2.652;2023-07-22T12:53:05;33.92;51.09
68450;SHT30;67758;39.572;2.652;2023-07-22T12:55:30;34.98;48.82
68450;SHT30;67758;39.572;2.652;2023-07-22T12:57:56;35.30;48.18
68450;SHT30;67758;39.572;2.652;2023-07-22T13:00:22;35.73;47.57
68450;SHT30;67758;39.572;2.652;2023-07-22T13:02:48;36.08;46.96
68450;SHT30;67758;39.572;2.652;2023-07-22T13:05:14;36.51;45.72
68450;SHT30;67758;39.572;2.652;2023-07-22T13:07:40;36.40;46.66
68450;SHT30;67758;39.572;2.652;2023-07-22T13:10:11;36.99;45.72
68450;SHT30;67758;39.572;2.652;2023-07-22T13:12:39;36.81;46.19
68450;SHT30;67758;39.572;2.652;2023-07-22T13:15:05;37.00;46.41
68450;SHT30;67758;39.572;2.652;2023-07-22T13:17:31;36.62;46.29
68450;SHT30;67758;39.572;2.652;2023-07-22T13:19:57;37.20;45.04
68450;SHT30;67758;39.572;2.652;2023-07-22T13:22:23;36.86;45.20
68450;SHT30;67758;39.572;2.652;2023-07-22T13:24:48;37.56;44.04
68450;SHT30;67758;39.572;2.652;2023-07-22T13:27:14;37.53;44.11
68450;SHT30;67758;39.572;2.652;2023-07-22T13:29:40;37.97;43.73
68450;SHT30;67758;39.572;2.652;2023-07-22T13:32:06;38.24;43.15
68450;SHT30;67758;39.572;2.652;2023-07-22T13:34:31;37.09;45.34
68450;SHT30;67758;39.572;2.652;2023-07-22T13:36:57;36.30;46.87
68450;SHT30;67758;39.572;2.652;2023-07-22T13:39:23;36.67;46.92
68450;SHT30;67758;39.572;2.652;2023-07-22T13:41:49;35.66;50.42
68450;SHT30;67758;39.572;2.652;2023-07-22T13:44:16;34.79;53.82
68450;SHT30;67758;39.572;2.652;2023-07-22T13:46:42;33.96;55.19
68450;SHT30;67758;39.572;2.652;2023-07-22T13:49:07;34.58;54.12
68450;SHT30;67758;39.572;2.652;2023-07-22T13:51:33;33.74;55.94
68450;SHT30;67758;39.572;2.652;2023-07-22T13:53:59;33.70;56.01
68450;SHT30;67758;39.572;2.652;2023-07-22T13:56:25;33.42;55.92
68450;SHT30;67758;39.572;2.652;2023-07-22T13:58:50;34.01;55.04
68450;SHT30;67758;39.572;2.652;2023-07-22T14:01:17;34.92;53.01
68450;SHT30;67758;39.572;2.652;2023-07-22T14:03:43;35.47;52.25
68450;SHT30;67758;39.572;2.652;2023-07-22T14:06:09;35.42;51.64
68450;SHT30;67758;39.572;2.652;2023-07-22T14:08:34;35.69;51.70
68450;SHT30;67758;39.572;2.652;2023-07-22T14:11:00;35.29;53.45
68450;SHT30;67758;39.572;2.652;2023-07-22T14:13:26;34.65;54.33
68450;SHT30;67758;39.572;2.652;2023-07-22T14:15:51;34.27;55.15
68450;SHT30;67758;39.572;2.652;2023-07-22T14:18:19;34.99;54.58
68450;SHT30;67758;39.572;2.652;2023-07-22T14:20:47;35.73;53.14
68450;SHT30;67758;39.572;2.652;2023-07-22T14:23:12;36.25;52.69
68450;SHT30;67758;39.572;2.652;2023-07-22T14:25:38;36.23;53.34
68450;SHT30;67758;39.572;2.652;2023-07-22T14:28:04;36.88;51.62
68450;SHT30;67758;39.572;2.652;2023-07-22T14:30:29;36.95;50.58
68450;SHT30;67758;39.572;2.652;2023-07-22T14:32:55;37.04;51.09
68450;SHT30;67758;39.572;2.652;2023-07-22T14:35:21;36.93;51.56
68450;SHT30;67758;39.572;2.652;2023-07-22T14:37:47;36.98;51.44
68450;SHT30;67758;39.572;2.652;2023-07-22T14:40:13;36.86;52.34
68450;SHT30;67758;39.572;2.652;2023-07-22T14:42:39;36.92;53.08
68450;SHT30;67758;39.572;2.652;2023-07-22T14:45:06;36.42;53.69
68450;SHT30;67758;39.572;2.652;2023-07-22T14:47:32;35.45;55.46
68450;SHT30;67758;39.572;2.652;2023-07-22T14:49:58;34.49;56.56
68450;SHT30;67758;39.572;2.652;2023-07-22T14:52:24;33.66;59.29
68450;SHT30;67758;39.572;2.652;2023-07-22T14:54:49;33.42;60.37
68450;SHT30;67758;39.572;2.652;2023-07-22T14:57:16;33.36;60.39
68450;SHT30;67758;39.572;2.652;2023-07-22T14:59:42;33.16;60.86
68450;SHT30;67758;39.572;2.652;2023-07-22T15:02:08;33.43;60.66
68450;SHT30;67758;39.572;2.652;2023-07-22T15:04:34;35.12;57.44
68450;SHT30;67758;39.572;2.652;2023-07-22T15:07:00;33.90;59.67
68450;SHT30;67758;39.572;2.652;2023-07-22T15:09:25;33.73;60.30
68450;SHT30;67758;39.572;2.652;2023-07-22T15:11:51;33.30;61.56
68450;SHT30;67758;39.572;2.652;2023-07-22T15:14:18;33.35;61.55
68450;SHT30;67758;39.572;2.652;2023-07-22T15:16:44;34.00;59.70
68450;SHT30;67758;39.572;2.652;2023-07-22T15:19:11;33.50;60.04
68450;SHT30;67758;39.572;2.652;2023-07-22T15:21:36;32.99;61.32
68450;SHT30;67758;39.572;2.652;2023-07-22T15:24:02;33.16;61.52
68450;SHT30;67758;39.572;2.652;2023-07-22T15:26:28;32.60;63.68
68450;SHT30;67758;39.572;2.652;2023-07-22T15:28:53;32.47;63.83
68450;SHT30;67758;39.572;2.652;2023-07-22T15:31:20;32.48;64.52
68450;SHT30;67758;39.572;2.652;2023-07-22T15:33:46;32.31;64.58
68450;SHT30;67758;39.572;2.652;2023-07-22T15:36:13;32.50;63.94
68450;SHT30;67758;39.572;2.652;2023-07-22T15:38:38;32.64;63.88
68450;SHT30;67758;39.572;2.652;2023-07-22T15:41:07;32.94;63.00